Archival Weather

NSFA McMurdo Sound

NSFA McMurdo Sound, Antarctica (NZCM)

Report from: Saturday, February 24, 2024 7:55 PM UTC
Current time: Monday, June 24, 2024 10:30 AM UTC

Current weather – Weather history – Daily summaries
Weather forecast

Temperature-12.0°C (10.4°F)
Wind chill-19.6°C (-3.3°F)
Dew point-28.5°C (-19.3°F)
Winds 9 kts (4.6 m/s, 10.4 mph) East-Northeast (70°)
Visibility6.2 mi. (10 km)
Clouds Sky clear
Altimeter29.14 in.Hg (987 mB)
Relative humidity24 %
Density altitude-5,865 ft. (-1,788 m)
Sea-level pressure108.7 kPa (1087 mB, 32.11 in.Hg)
Remarks Fully automated report
Automated weather observing station with precipitation discriminator
Flight conditions Visual Meteorological Conditions
Raw dataNZCM 241955Z AUTO 07009KT 9999 CLR M12/M29 A2914 RMK AO2 SLP874 T11201285
An error has occurred. This application may no longer respond until reloaded. Reload 🗙